Time;durP1;ratioP1;P1;durP2;ratioP2;P2;SDS_P1;SDS_P2;PMS_P1;PMS_P2;Temp;Humidity;BMP_temperature;BMP_pressure;BME280_temperature;BME280_humidity;BME280_pressure;Samples;Min_cycle;Max_cycle;Signal;HPM_P1;HPM_P2
2024/04/04 00:02:10;;;;;;;11.02;2.85;;;;;;;8.75;79.91;100341.16;5001602;28;20493;-81
2024/04/04 00:04:37;;;;;;;9.63;2.30;;;;;;;8.70;80.50;100340.69;4988131;28;20047;-80
2024/04/04 00:07:03;;;;;;;5.95;2.33;;;;;;;8.66;80.16;100338.44;4994310;28;20050;-80
2024/04/04 00:09:32;;;;;;;5.97;2.63;;;;;;;8.65;80.30;100334.13;4998670;28;20125;-80
2024/04/04 00:11:57;;;;;;;9.63;3.33;;;;;;;8.56;80.23;100336.56;4997928;28;20116;-80
2024/04/04 00:14:25;;;;;;;8.43;2.53;;;;;;;8.52;79.94;100326.41;5005175;28;20050;-79
2024/04/04 00:16:51;;;;;;;7.95;2.42;;;;;;;8.34;80.97;100324.31;5011897;28;20058;-80
2024/04/04 00:19:18;;;;;;;9.63;2.80;;;;;;;8.25;81.07;100319.78;5012955;28;20046;-80
2024/04/04 00:21:44;;;;;;;7.93;2.90;;;;;;;8.30;81.72;100316.78;5000422;28;20104;-82
2024/04/04 00:24:10;;;;;;;5.28;2.30;;;;;;;8.29;81.30;100315.09;4998323;28;20061;-81
2024/04/04 00:26:36;;;;;;;8.10;3.10;;;;;;;8.27;82.21;100309.97;4998007;28;20050;-79
2024/04/04 00:29:03;;;;;;;7.25;2.80;;;;;;;8.40;81.36;100303.72;4998648;28;20108;-80
2024/04/04 00:31:30;;;;;;;8.10;3.03;;;;;;;8.43;81.34;100299.00;4998233;28;20060;-80
2024/04/04 00:33:58;;;;;;;6.15;2.80;;;;;;;8.48;80.98;100296.84;4989449;28;20049;-80
2024/04/04 00:36:23;;;;;;;8.75;3.53;;;;;;;8.50;81.16;100292.25;4999014;28;20047;-81
2024/04/04 00:38:50;;;;;;;11.95;3.00;;;;;;;8.45;81.03;100285.72;4998529;28;20169;-79
2024/04/04 00:41:15;;;;;;;7.63;2.60;;;;;;;8.45;81.63;100280.44;4998174;28;20165;-81
2024/04/04 00:43:42;;;;;;;5.95;2.95;;;;;;;8.47;81.67;100278.50;4997646;28;20494;-80
2024/04/04 00:46:08;;;;;;;7.13;2.25;;;;;;;8.51;81.08;100278.09;4985300;28;20130;-79
2024/04/04 00:48:36;;;;;;;8.35;2.88;;;;;;;8.53;80.70;100268.28;4994788;28;20085;-81
2024/04/04 00:51:02;;;;;;;10.35;2.75;;;;;;;8.52;81.30;100263.09;5002599;23;20088;-79
2024/04/04 00:53:29;;;;;;;6.43;2.60;;;;;;;8.61;81.55;100270.25;4999083;28;20066;-81
2024/04/04 00:55:55;;;;;;;6.35;2.60;;;;;;;8.60;81.00;100263.31;4999293;28;20074;-84
2024/04/04 00:58:23;;;;;;;6.97;2.83;;;;;;;8.61;81.75;100262.31;4994201;28;20046;-80
2024/04/04 01:00:48;;;;;;;5.15;2.70;;;;;;;8.60;81.24;100264.13;4993380;28;20062;-80
2024/04/04 01:03:15;;;;;;;6.43;2.58;;;;;;;8.62;81.54;100264.03;4995462;28;20077;-80
2024/04/04 01:05:42;;;;;;;5.80;2.80;;;;;;;8.63;81.62;100260.41;4993403;28;20116;-80
2024/04/04 01:08:10;;;;;;;4.88;2.70;;;;;;;8.63;81.65;100252.50;4990074;28;20082;-80
2024/04/04 01:10:35;;;;;;;8.35;2.88;;;;;;;8.66;81.73;100251.38;4995617;28;20117;-80
2024/04/04 01:13:02;;;;;;;10.30;3.10;;;;;;;8.63;82.03;100254.31;4997849;28;20457;-79
2024/04/04 01:15:27;;;;;;;5.03;2.53;;;;;;;8.66;82.08;100243.47;4992889;28;20046;-80
2024/04/04 01:17:58;;;;;;;7.70;2.97;;;;;;;8.66;82.49;100246.09;4989479;28;20101;-80
2024/04/04 01:20:24;;;;;;;7.15;2.53;;;;;;;8.66;82.41;100238.19;4987478;28;20051;-79
2024/04/04 01:22:53;;;;;;;6.72;2.90;;;;;;;8.65;82.37;100229.44;4992645;28;20043;-78
2024/04/04 01:25:20;;;;;;;8.25;3.20;;;;;;;8.67;82.30;100231.97;4989119;28;20512;-80
2024/04/04 01:27:49;;;;;;;6.85;2.88;;;;;;;8.64;82.66;100224.31;4990304;28;20508;-80
2024/04/04 01:30:15;;;;;;;6.63;3.13;;;;;;;8.61;82.63;100226.22;4997590;28;20058;-79
2024/04/04 01:32:41;;;;;;;7.03;3.40;;;;;;;8.66;82.67;100220.59;4990600;28;20061;-80
2024/04/04 01:35:07;;;;;;;8.05;3.58;;;;;;;8.70;82.75;100224.59;4987656;28;20101;-81
2024/04/04 01:37:34;;;;;;;10.90;4.10;;;;;;;8.76;82.24;100221.47;4996600;28;20047;-80
2024/04/04 01:40:00;;;;;;;10.02;4.00;;;;;;;8.76;82.20;100218.81;4990225;28;20085;-79
2024/04/04 01:42:28;;;;;;;6.43;3.28;;;;;;;8.87;82.22;100202.03;4993119;28;20058;-78
2024/04/04 01:44:53;;;;;;;5.85;3.55;;;;;;;8.90;82.06;100196.50;4991535;28;20129;-83
2024/04/04 01:47:20;;;;;;;8.30;3.88;;;;;;;8.89;82.31;100189.56;4986556;28;20109;-79
2024/04/04 01:49:45;;;;;;;7.55;3.53;;;;;;;8.86;82.93;100181.91;4988652;28;20108;-82
2024/04/04 01:52:12;;;;;;;5.25;3.92;;;;;;;8.83;82.40;100190.09;4997451;28;20057;-77
2024/04/04 01:54:38;;;;;;;9.23;3.85;;;;;;;8.83;83.48;100183.00;4997771;28;20073;-82
2024/04/04 01:57:05;;;;;;;7.15;3.92;;;;;;;8.89;82.69;100189.56;4995713;28;20050;-81
2024/04/04 01:59:32;;;;;;;6.18;3.50;;;;;;;8.85;83.00;100186.34;4998170;28;20082;-79
2024/04/04 02:02:02;;;;;;;5.85;4.07;;;;;;;8.90;83.35;100185.94;4996553;28;20575;-79
2024/04/04 02:04:27;;;;;;;7.32;3.65;;;;;;;8.83;83.69;100185.63;4998231;28;20082;-78
2024/04/04 02:06:54;;;;;;;8.57;3.90;;;;;;;8.82;84.46;100193.69;4997156;28;20547;-79
2024/04/04 02:09:20;;;;;;;7.40;4.00;;;;;;;8.83;84.37;100185.63;4989554;28;20394;-82
2024/04/04 02:11:46;;;;;;;6.00;4.07;;;;;;;8.89;83.55;100184.28;4996674;28;20124;-79
2024/04/04 02:14:12;;;;;;;11.00;4.43;;;;;;;8.87;84.32;100180.94;4997891;28;20468;-80
2024/04/04 02:16:42;;;;;;;6.90;4.10;;;;;;;8.97;83.87;100173.88;4997585;28;20063;-82
2024/04/04 02:19:08;;;;;;;10.00;4.18;;;;;;;9.06;83.29;100167.81;4998768;28;20096;-78
2024/04/04 02:21:35;;;;;;;8.38;4.10;;;;;;;9.03;83.82;100173.34;4991775;28;20090;-80
2024/04/04 02:24:00;;;;;;;6.43;3.78;;;;;;;9.09;83.65;100167.53;4998734;28;20300;-77
2024/04/04 02:26:27;;;;;;;8.15;3.85;;;;;;;9.08;84.09;100162.38;4997197;28;20125;-79
2024/04/04 02:28:53;;;;;;;8.50;3.80;;;;;;;9.06;83.62;100157.25;4996907;28;20551;-83
2024/04/04 02:31:20;;;;;;;6.10;3.70;;;;;;;9.07;84.65;100158.91;4996071;28;20141;-79
2024/04/04 02:33:47;;;;;;;6.50;3.40;;;;;;;9.15;84.19;100145.00;4989054;28;20133;-80
2024/04/04 02:36:14;;;;;;;7.78;3.70;;;;;;;9.20;84.74;100145.47;4995832;28;20136;-81
2024/04/04 02:38:39;;;;;;;11.00;3.60;;;;;;;9.27;84.49;100151.00;4995018;28;20109;-81
2024/04/04 02:41:06;;;;;;;5.93;3.35;;;;;;;9.30;85.02;100141.00;4995635;28;20369;-80
2024/04/04 02:43:32;;;;;;;7.95;4.03;;;;;;;9.27;85.84;100145.72;4988414;28;20043;-82
2024/04/04 02:46:04;;;;;;;7.40;3.40;;;;;;;9.27;86.00;100138.63;4995801;28;20054;-80
2024/04/04 02:48:30;;;;;;;9.98;3.78;;;;;;;9.34;86.78;100136.28;4998202;28;20070;-79
2024/04/04 02:51:02;;;;;;;6.00;3.03;;;;;;;9.34;87.44;100123.09;4996573;28;20046;-82
2024/04/04 02:53:29;;;;;;;5.13;3.30;;;;;;;9.34;88.79;100110.72;4997673;28;20043;-81
2024/04/04 02:55:57;;;;;;;7.03;3.10;;;;;;;9.41;87.54;100110.97;4992970;28;20085;-84
2024/04/04 02:58:24;;;;;;;7.65;3.28;;;;;;;9.40;88.09;100108.50;5013033;28;20046;-84
2024/04/04 03:00:51;;;;;;;8.18;3.33;;;;;;;9.33;89.41;100108.19;5013509;28;20150;-83
2024/04/04 03:03:17;;;;;;;5.85;3.08;;;;;;;9.37;88.82;100104.31;5013094;28;20050;-81
2024/04/04 03:05:44;;;;;;;4.85;3.20;;;;;;;9.39;89.31;100105.03;5004712;28;20085;-82
2024/04/04 03:08:13;;;;;;;4.90;3.17;;;;;;;9.27;90.14;100087.63;5003159;28;20117;-80
2024/04/04 03:10:40;;;;;;;6.55;3.60;;;;;;;9.27;90.50;100087.63;4997055;28;20104;-81
2024/04/04 03:13:06;;;;;;;8.23;3.42;;;;;;;9.20;91.16;100089.19;4998353;28;20050;-82
2024/04/04 03:15:33;;;;;;;6.35;3.63;;;;;;;9.20;92.05;100087.38;4998779;28;20101;-81
2024/04/04 03:17:58;;;;;;;7.80;4.13;;;;;;;9.08;92.92;100099.03;4998780;28;20058;-81
2024/04/04 03:20:25;;;;;;;5.63;3.90;;;;;;;9.07;92.99;100094.72;4997728;28;20046;-81
2024/04/04 03:22:51;;;;;;;5.30;3.80;;;;;;;9.11;93.28;100086.41;4996888;28;20321;-80
2024/04/04 03:25:19;;;;;;;9.85;4.13;;;;;;;9.20;93.13;100073.34;4992746;28;20113;-81
2024/04/04 03:27:45;;;;;;;8.18;4.20;;;;;;;9.14;93.62;100082.63;4996067;28;20503;-80
2024/04/04 03:30:12;;;;;;;8.88;4.20;;;;;;;9.18;93.50;100072.63;4999044;28;20082;-81
2024/04/04 03:32:37;;;;;;;7.45;4.43;;;;;;;9.19;93.75;100069.00;4998926;28;20129;-81
2024/04/04 03:35:08;;;;;;;8.70;4.35;;;;;;;9.23;93.69;100065.97;4978596;28;20042;-78
2024/04/04 03:37:34;;;;;;;6.65;4.60;;;;;;;9.25;93.95;100064.03;4993593;28;20089;-80
2024/04/04 03:40:00;;;;;;;7.78;4.55;;;;;;;9.27;93.95;100066.53;4998062;28;20060;-81
2024/04/04 03:42:29;;;;;;;10.63;5.00;;;;;;;9.28;94.09;100057.63;4998076;28;20144;-80
2024/04/04 03:44:55;;;;;;;8.48;4.75;;;;;;;9.33;93.81;100055.38;4981467;28;20066;-81
2024/04/04 03:47:21;;;;;;;12.90;4.78;;;;;;;9.36;94.33;100057.75;4987262;28;20198;-81
2024/04/04 03:49:48;;;;;;;8.13;4.85;;;;;;;9.39;94.09;100049.56;4993537;28;20424;-82
2024/04/04 03:52:16;;;;;;;8.05;5.00;;;;;;;9.44;94.06;100051.78;5000223;28;20080;-81
2024/04/04 03:54:42;;;;;;;8.43;4.65;;;;;;;9.49;94.22;100028.41;4993285;28;20106;-81
2024/04/04 03:57:09;;;;;;;7.72;5.13;;;;;;;9.53;94.28;100029.81;5000709;28;20050;-81
2024/04/04 03:59:36;;;;;;;9.93;4.90;;;;;;;9.62;93.68;100028.94;5001078;28;20100;-84
2024/04/04 04:02:04;;;;;;;7.53;4.78;;;;;;;9.70;93.73;100030.88;5001441;28;20050;-81
2024/04/04 04:04:29;;;;;;;8.73;4.63;;;;;;;9.76;93.70;100025.00;5003349;28;20042;-80
2024/04/04 04:06:56;;;;;;;7.25;4.22;;;;;;;9.79;94.04;100014.16;4999705;28;20567;-80
2024/04/04 04:09:22;;;;;;;10.07;4.15;;;;;;;9.84;93.89;100023.31;5002420;28;20065;-83
2024/04/04 04:11:49;;;;;;;5.65;3.97;;;;;;;9.98;93.35;100029.94;5008397;28;20054;-80
2024/04/04 04:14:15;;;;;;;5.85;3.83;;;;;;;10.02;92.92;100020.75;5009417;28;20050;-80
2024/04/04 04:16:43;;;;;;;6.35;3.83;;;;;;;10.06;93.22;100021.28;5007319;28;20064;-80
2024/04/04 04:19:10;;;;;;;5.30;3.58;;;;;;;10.13;93.10;100017.94;5005077;28;20205;-83
2024/04/04 04:21:36;;;;;;;7.97;3.80;;;;;;;10.26;92.19;100009.66;5007171;28;20181;-85
2024/04/04 04:24:03;;;;;;;4.82;3.20;;;;;;;10.29;92.66;100006.72;4998657;28;20058;-81
2024/04/04 04:26:30;;;;;;;6.75;3.10;;;;;;;10.32;92.51;100016.19;5005569;28;20409;-80
2024/04/04 04:28:57;;;;;;;9.15;4.30;;;;;;;10.44;92.28;100014.16;4994075;28;20055;-80
2024/04/04 04:31:26;;;;;;;5.63;3.28;;;;;;;10.43;91.56;100008.03;5004464;28;20460;-80
2024/04/04 04:33:56;;;;;;;5.65;3.13;;;;;;;10.41;92.01;99994.13;5010038;28;20102;-82
2024/04/04 04:36:23;;;;;;;4.28;2.85;;;;;;;10.51;91.78;100000.19;5000140;28;20074;-83
2024/04/04 04:38:50;;;;;;;5.40;2.85;;;;;;;10.57;91.24;100001.41;5004171;28;20054;-83
2024/04/04 04:41:15;;;;;;;3.38;2.58;;;;;;;10.58;91.39;99995.97;4999767;28;20093;-81
2024/04/04 04:43:44;;;;;;;3.03;2.50;;;;;;;10.56;91.01;99987.34;4991173;28;20058;-82
2024/04/04 04:46:11;;;;;;;5.22;2.80;;;;;;;10.66;91.17;99986.44;4998444;28;20468;-80
2024/04/04 04:48:38;;;;;;;7.05;3.17;;;;;;;10.53;91.96;99986.81;5000911;28;20046;-80
2024/04/04 04:51:05;;;;;;;3.47;2.28;;;;;;;10.60;91.64;99983.41;5000873;28;20492;-81
2024/04/04 04:53:32;;;;;;;2.72;2.17;;;;;;;10.67;91.03;99982.81;4999568;28;20291;-80
2024/04/04 04:55:58;;;;;;;3.40;2.45;;;;;;;10.61;91.53;99973.66;4999955;28;20441;-80
2024/04/04 04:58:25;;;;;;;4.82;2.33;;;;;;;10.68;91.65;99974.75;4986764;28;20054;-82
2024/04/04 05:00:52;;;;;;;3.40;2.35;;;;;;;10.74;91.46;99968.00;5000304;28;20054;-80
2024/04/04 05:03:20;;;;;;;2.97;2.08;;;;;;;10.75;91.19;99967.00;4999622;28;20053;-81
2024/04/04 05:05:50;;;;;;;4.20;2.50;;;;;;;10.77;91.11;99963.25;4982761;28;20050;-81
2024/04/04 05:08:19;;;;;;;2.60;1.92;;;;;;;10.75;91.01;99962.53;4990992;28;20445;-81
2024/04/04 05:10:45;;;;;;;4.53;2.60;;;;;;;10.80;91.17;99962.09;5000162;28;20054;-82
2024/04/04 05:13:14;;;;;;;2.63;2.15;;;;;;;10.86;90.46;99953.56;5000358;28;20076;-81
2024/04/04 05:15:47;;;;;;;6.05;2.53;;;;;;;10.87;91.02;99949.91;4998477;28;20078;-79
2024/04/04 05:18:14;;;;;;;5.28;2.33;;;;;;;10.84;91.43;99952.88;4995414;28;20058;-81
2024/04/04 05:20:42;;;;;;;3.97;2.35;;;;;;;10.87;91.22;99947.28;4988066;28;20057;-81
2024/04/04 05:23:09;;;;;;;3.60;2.40;;;;;;;10.91;91.07;99947.81;4999269;28;20062;-79
2024/04/04 05:25:36;;;;;;;2.95;1.65;;;;;;;10.86;91.97;99948.25;4982952;28;20059;-80
2024/04/04 05:28:02;;;;;;;3.72;2.42;;;;;;;10.88;92.54;99938.34;4987647;28;20157;-80
2024/04/04 05:30:30;;;;;;;5.47;2.42;;;;;;;10.88;93.15;99941.81;4980116;28;20093;-79
2024/04/04 05:33:00;;;;;;;4.45;2.17;;;;;;;10.86;93.58;99940.31;4988963;28;20146;-83
2024/04/04 05:35:26;;;;;;;4.03;2.47;;;;;;;10.85;93.94;99926.25;4993894;28;20078;-83
2024/04/04 05:37:52;;;;;;;3.90;2.30;;;;;;;10.89;94.21;99924.13;4998654;28;20054;-82
2024/04/04 05:40:18;;;;;;;4.88;2.60;;;;;;;10.84;94.50;99921.09;4999166;28;20104;-82
2024/04/04 05:42:46;;;;;;;5.53;2.50;;;;;;;10.83;94.92;99924.75;4991062;28;20460;-83
2024/04/04 05:45:12;;;;;;;4.15;2.40;;;;;;;10.80;95.47;99919.75;4999757;28;20050;-81
2024/04/04 05:47:38;;;;;;;5.38;2.70;;;;;;;10.89;94.93;99924.13;4998893;28;20061;-81
2024/04/04 05:50:06;;;;;;;5.30;2.88;;;;;;;10.86;95.47;99930.56;4998135;28;20054;-81
2024/04/04 05:52:33;;;;;;;5.03;2.90;;;;;;;10.90;95.34;99927.63;4989942;28;20073;-83
2024/04/04 05:54:59;;;;;;;5.03;2.67;;;;;;;10.90;95.52;99925.78;4999201;28;20129;-83
2024/04/04 05:57:26;;;;;;;8.15;3.40;;;;;;;10.95;95.48;99920.03;4999726;28;20137;-81
2024/04/04 05:59:53;;;;;;;6.30;2.63;;;;;;;10.92;95.80;99921.16;4990178;28;20054;-83
2024/04/04 06:02:20;;;;;;;5.55;2.38;;;;;;;10.89;95.88;99913.53;5000141;28;20137;-79
2024/04/04 06:04:47;;;;;;;8.32;2.88;;;;;;;10.90;96.35;99909.91;4999497;28;20054;-80
2024/04/04 06:07:13;;;;;;;4.75;2.88;;;;;;;10.93;96.00;99912.22;5000948;28;20097;-80
2024/04/04 06:09:39;;;;;;;8.20;2.90;;;;;;;10.97;95.76;99916.25;5000850;28;20133;-81
2024/04/04 06:12:06;;;;;;;7.80;2.72;;;;;;;10.93;96.19;99914.88;4992190;28;20113;-80
2024/04/04 06:14:33;;;;;;;7.93;3.05;;;;;;;10.95;96.27;99912.94;4992042;28;20047;-81
2024/04/04 06:17:01;;;;;;;12.82;3.55;;;;;;;10.97;96.26;99913.59;4999862;28;20481;-84
2024/04/04 06:19:27;;;;;;;6.78;3.70;;;;;;;10.98;96.37;99901.19;4999324;28;20074;-81
2024/04/04 06:21:55;;;;;;;8.18;3.30;;;;;;;11.13;95.48;99897.00;5000840;28;20100;-83
2024/04/04 06:24:20;;;;;;;8.32;3.35;;;;;;;11.06;96.63;99904.72;5000088;28;20053;-79
2024/04/04 06:26:50;;;;;;;9.23;3.60;;;;;;;11.07;96.45;99884.38;5001710;28;20054;-83
2024/04/04 06:29:18;;;;;;;6.05;3.50;;;;;;;11.07;96.95;99893.16;5000806;28;20080;-83
2024/04/04 06:31:49;;;;;;;10.63;3.60;;;;;;;11.13;96.55;99887.22;5003204;28;20063;-84
2024/04/04 06:34:17;;;;;;;7.38;3.30;;;;;;;11.09;96.96;99885.06;5000302;28;20050;-80
2024/04/04 06:36:46;;;;;;;10.98;3.90;;;;;;;11.09;97.48;99880.59;4980499;28;20078;-82
2024/04/04 06:39:15;;;;;;;5.72;3.47;;;;;;;11.05;97.55;99875.75;4990911;28;20493;-81
2024/04/04 06:41:42;;;;;;;10.10;4.00;;;;;;;11.07;97.90;99879.94;5001122;28;20131;-80
2024/04/04 06:44:09;;;;;;;8.45;3.67;;;;;;;11.12;97.62;99874.16;4999314;28;20050;-80
2024/04/04 06:46:35;;;;;;;10.30;3.30;;;;;;;11.14;97.26;99872.16;4997621;28;20054;-80
2024/04/04 06:49:01;;;;;;;7.53;3.53;;;;;;;11.16;97.53;99867.53;4995345;28;20489;-81
2024/04/04 06:51:32;;;;;;;7.90;3.88;;;;;;;11.14;97.97;99866.88;5004160;23;20050;-81
2024/04/04 06:53:58;;;;;;;10.45;3.65;;;;;;;11.23;97.18;99868.59;4991188;28;20046;-79
2024/04/04 06:56:24;;;;;;;7.30;3.10;;;;;;;11.16;97.66;99864.88;4993132;28;20125;-80
2024/04/04 06:58:50;;;;;;;11.73;3.53;;;;;;;11.16;97.67;99864.06;4992825;28;20137;-80
2024/04/04 07:01:17;;;;;;;8.38;3.10;;;;;;;11.12;98.01;99856.44;4989185;28;20118;-80
2024/04/04 07:03:43;;;;;;;8.60;4.15;;;;;;;11.20;98.18;99862.75;4992011;28;20054;-80
2024/04/04 07:06:09;;;;;;;13.75;4.40;;;;;;;11.25;97.28;99849.88;4995179;28;20489;-79
2024/04/04 07:08:40;;;;;;;11.63;4.95;;;;;;;11.19;97.97;99866.41;4995613;28;20496;-80
2024/04/04 07:11:09;;;;;;;11.82;4.93;;;;;;;11.23;97.99;99867.75;5001878;28;20050;-79
2024/04/04 07:13:36;;;;;;;11.48;4.72;;;;;;;11.22;98.02;99855.50;4995161;28;20563;-78
2024/04/04 07:16:04;;;;;;;9.68;5.07;;;;;;;11.29;98.00;99862.66;4983539;28;20049;-80
2024/04/04 07:18:31;;;;;;;13.65;5.22;;;;;;;11.31;97.54;99854.56;5001571;28;20112;-80
2024/04/04 07:20:58;;;;;;;11.65;5.00;;;;;;;11.26;98.03;99849.75;5001217;28;20108;-81
2024/04/04 07:23:23;;;;;;;12.32;4.90;;;;;;;11.36;98.21;99858.38;5000336;28;20133;-81
2024/04/04 07:25:53;;;;;;;14.65;4.90;;;;;;;11.33;98.12;99852.56;5002947;28;20081;-81
2024/04/04 07:28:19;;;;;;;8.27;4.68;;;;;;;11.32;97.89;99846.44;5000961;28;20108;-82
2024/04/04 07:30:46;;;;;;;7.60;4.45;;;;;;;11.36;98.06;99845.16;5000537;28;20106;-82
2024/04/04 07:33:12;;;;;;;7.65;3.90;;;;;;;11.41;97.91;99857.91;4995819;28;20105;-80
2024/04/04 07:35:39;;;;;;;9.35;3.42;;;;;;;11.48;97.78;99851.00;4980090;28;20089;-81
2024/04/04 07:38:05;;;;;;;7.68;3.88;;;;;;;11.44;98.34;99849.66;5000899;28;20081;-82
2024/04/04 07:40:34;;;;;;;7.65;3.15;;;;;;;11.49;97.98;99846.53;4992103;28;20050;-82
2024/04/04 07:43:01;;;;;;;7.35;3.38;;;;;;;11.53;97.65;99845.22;5000503;28;20133;-81
2024/04/04 07:45:28;;;;;;;7.80;3.17;;;;;;;11.47;97.85;99846.66;5000608;28;20057;-81
2024/04/04 07:47:54;;;;;;;10.70;3.08;;;;;;;11.54;97.63;99837.09;5000432;28;20078;-81
2024/04/04 07:50:21;;;;;;;4.80;2.53;;;;;;;11.56;97.30;99855.47;4999928;28;20417;-82
2024/04/04 07:52:48;;;;;;;6.65;2.83;;;;;;;11.53;97.94;99854.00;4999559;28;20073;-79
2024/04/04 07:55:15;;;;;;;4.28;2.40;;;;;;;11.55;97.84;99857.31;4994282;28;20050;-80
2024/04/04 07:57:41;;;;;;;6.93;2.58;;;;;;;11.62;97.29;99863.63;4997287;28;20058;-79
2024/04/04 08:00:13;;;;;;;2.67;1.63;;;;;;;11.71;94.03;99874.28;5000194;28;20149;-79
2024/04/04 08:02:39;;;;;;;3.50;2.20;;;;;;;11.68;95.35;99891.31;5003195;28;20090;-80
2024/04/04 08:05:06;;;;;;;3.08;1.63;;;;;;;11.67;94.83;99899.44;5005877;28;20468;-82
2024/04/04 08:07:36;;;;;;;3.42;1.38;;;;;;;11.59;94.70;99901.06;5000477;28;20086;-78
2024/04/04 08:10:08;;;;;;;1.25;1.13;;;;;;;11.46;92.99;99911.25;4982633;28;20054;-80
2024/04/04 08:12:35;;;;;;;2.47;1.57;;;;;;;11.30;94.79;99935.03;5001337;28;20050;-80
2024/04/04 08:15:12;;;;;;;2.55;1.13;;;;;;;11.24;94.63;99932.97;5001908;28;20481;-83
2024/04/04 08:17:40;;;;;;;3.45;1.30;;;;;;;11.20;94.01;99921.03;5005584;28;20133;-81
2024/04/04 08:20:14;;;;;;;4.18;1.45;;;;;;;11.18;95.17;99901.81;5004958;28;20051;-81
2024/04/04 08:22:40;;;;;;;2.42;1.17;;;;;;;11.13;94.76;99894.34;5002739;28;20120;-79
2024/04/04 08:25:06;;;;;;;3.40;1.80;;;;;;;11.11;95.74;99886.53;4994026;28;20050;-80
2024/04/04 08:27:33;;;;;;;1.85;1.20;;;;;;;11.05;95.89;99844.81;5002201;28;20217;-79
2024/04/04 08:30:03;;;;;;;3.42;1.33;;;;;;;11.06;96.13;99861.53;4997686;28;20114;-80
2024/04/04 08:32:30;;;;;;;3.70;1.38;;;;;;;11.09;96.30;99871.81;4996774;28;20054;-79
2024/04/04 08:35:06;;;;;;;2.38;1.20;;;;;;;11.12;96.13;99908.59;5005358;28;20120;-82
2024/04/04 08:37:32;;;;;;;4.75;1.55;;;;;;;11.17;96.47;99902.81;4999623;28;20050;-84
2024/04/04 08:39:59;;;;;;;6.18;1.20;;;;;;;11.25;95.60;99914.31;4983913;28;20051;-83
2024/04/04 08:42:30;;;;;;;3.03;1.20;;;;;;;11.42;95.12;99930.28;4992564;28;20156;-79
2024/04/04 08:44:58;;;;;;;3.67;1.42;;;;;;;11.48;94.47;99933.13;4998328;28;20152;-80
2024/04/04 08:47:35;;;;;;;3.17;1.42;;;;;;;11.53;93.90;99943.28;4997910;28;20097;-82
2024/04/04 08:50:08;;;;;;;2.22;1.27;;;;;;;11.70;93.24;99946.81;4998560;28;20110;-81
2024/04/04 08:52:37;;;;;;;3.70;1.35;;;;;;;11.85;91.59;99942.63;4999427;28;20176;-78
2024/04/04 08:55:09;;;;;;;3.20;1.30;;;;;;;11.95;90.87;99948.63;4991162;28;20362;-80
2024/04/04 08:57:37;;;;;;;2.90;1.17;;;;;;;11.91;92.12;99957.88;4998222;28;20493;-80
2024/04/04 09:00:11;;;;;;;3.50;1.75;;;;;;;11.89;90.99;99949.28;4990447;28;20050;-81
2024/04/04 09:02:42;;;;;;;2.20;1.50;;;;;;;11.88;89.98;99968.84;5000900;28;20065;-79
2024/04/04 09:05:21;;;;;;;3.72;1.23;;;;;;;11.98;89.69;99979.31;5001896;28;20046;-81
2024/04/04 09:07:50;;;;;;;1.77;0.93;;;;;;;12.01;89.75;99957.75;4983356;28;20051;-83
2024/04/04 09:10:18;;;;;;;3.72;1.55;;;;;;;12.01;88.44;99974.53;4991255;28;20057;-82
2024/04/04 09:12:44;;;;;;;1.95;1.00;;;;;;;12.02;89.17;99985.97;4984166;28;20130;-82
2024/04/04 09:15:19;;;;;;;2.63;1.13;;;;;;;12.02;88.30;99981.47;5000136;28;20047;-82
2024/04/04 09:17:46;;;;;;;2.30;1.20;;;;;;;11.97;88.26;99988.25;5000064;28;20107;-82
2024/04/04 09:20:19;;;;;;;3.95;1.30;;;;;;;12.10;87.09;99973.56;5000409;28;20050;-83
2024/04/04 09:22:45;;;;;;;2.30;1.02;;;;;;;12.35;86.42;99971.81;5014603;28;20053;-83
2024/04/04 09:25:11;;;;;;;2.13;1.15;;;;;;;12.74;84.91;99986.31;5002757;28;20047;-81
2024/04/04 09:27:52;;;;;;;2.35;0.88;;;;;;;13.02;83.04;99979.69;4983845;28;20134;-83
2024/04/04 09:30:22;;;;;;;2.60;1.13;;;;;;;13.23;82.45;99987.19;4994799;28;20088;-81
2024/04/04 09:32:49;;;;;;;3.40;1.20;;;;;;;13.59;80.30;99977.00;4999016;28;20046;-82
2024/04/04 09:35:19;;;;;;;1.55;1.02;;;;;;;13.51;78.72;99990.31;5000234;28;20046;-82
2024/04/04 09:37:45;;;;;;;2.20;1.15;;;;;;;13.79;78.64;99980.09;5000515;28;20062;-81
2024/04/04 09:40:15;;;;;;;0.70;0.65;;;;;;;13.96;78.71;99988.88;4985003;28;20082;-82
2024/04/04 09:42:42;;;;;;;2.15;1.08;;;;;;;13.79;77.29;99981.94;4987870;28;20054;-81
2024/04/04 09:45:09;;;;;;;6.13;1.17;;;;;;;13.82;76.42;99995.72;4999790;28;20058;-81
2024/04/04 09:47:41;;;;;;;2.03;1.05;;;;;;;13.98;76.51;99986.06;4992028;28;20058;-83
2024/04/04 09:50:09;;;;;;;1.63;1.10;;;;;;;13.98;75.73;100004.69;4983051;28;20047;-82
2024/04/04 09:52:38;;;;;;;1.55;1.15;;;;;;;14.03;74.91;100003.16;4998433;28;20050;-81
2024/04/04 09:55:07;;;;;;;2.92;1.10;;;;;;;13.87;74.66;100001.38;4990687;28;20531;-81
2024/04/04 09:57:35;;;;;;;3.42;1.27;;;;;;;13.92;75.74;100003.50;4991902;28;20055;-82
2024/04/04 10:00:14;;;;;;;1.65;1.13;;;;;;;14.04;75.73;100011.97;4994816;28;20054;-81
2024/04/04 10:02:43;;;;;;;2.35;1.10;;;;;;;14.03;75.14;100032.41;4987886;28;20124;-82
2024/04/04 10:05:20;;;;;;;0.93;0.88;;;;;;;13.87;74.48;100016.50;4990677;28;20057;-83
2024/04/04 10:07:48;;;;;;;2.45;1.58;;;;;;;13.84;74.89;100030.13;4996587;28;20536;-81
2024/04/04 10:10:16;;;;;;;3.10;1.58;;;;;;;13.80;74.68;100039.47;4978755;28;20053;-81
2024/04/04 10:12:43;;;;;;;5.35;1.50;;;;;;;13.96;74.36;100025.28;4996353;28;20046;-81
2024/04/04 10:15:10;;;;;;;2.47;1.48;;;;;;;14.02;73.87;100030.78;4987800;28;20046;-82
2024/04/04 10:17:40;;;;;;;3.03;1.55;;;;;;;13.98;73.27;100040.09;5005476;28;20129;-83
2024/04/04 10:20:09;;;;;;;2.65;1.38;;;;;;;13.86;74.59;100030.81;4989691;28;20062;-83
2024/04/04 10:22:34;;;;;;;2.25;1.50;;;;;;;13.80;73.53;100027.00;4995519;28;20050;-81
2024/04/04 10:25:03;;;;;;;3.92;2.28;;;;;;;13.95;73.63;100037.75;4998482;28;20093;-84
2024/04/04 10:27:29;;;;;;;3.30;1.15;;;;;;;13.91;74.91;100028.47;4990245;28;20093;-79
2024/04/04 10:29:56;;;;;;;4.22;2.22;;;;;;;13.71;75.37;100037.84;4999862;28;20501;-82
2024/04/04 10:32:22;;;;;;;7.20;2.42;;;;;;;13.71;74.27;100040.50;5001318;28;20092;-82
2024/04/04 10:35:00;;;;;;;3.08;1.42;;;;;;;13.69;74.83;100045.13;5008710;28;20043;-82
2024/04/04 10:37:25;;;;;;;3.53;1.67;;;;;;;13.71;74.79;100053.78;5009809;28;20046;-81
2024/04/04 10:39:52;;;;;;;3.75;1.58;;;;;;;13.83;74.96;100047.91;5005074;28;20050;-82
2024/04/04 10:42:21;;;;;;;3.78;1.75;;;;;;;13.93;74.70;100041.56;5001086;28;20065;-81
2024/04/04 10:44:50;;;;;;;4.35;1.50;;;;;;;14.03;73.95;100053.72;4997184;28;20046;-81
2024/04/04 10:47:17;;;;;;;4.28;1.38;;;;;;;13.98;73.30;100050.72;4989300;28;20056;-82
2024/04/04 10:49:45;;;;;;;3.65;1.77;;;;;;;14.09;72.37;100046.88;4996729;28;20046;-82
2024/04/04 10:52:11;;;;;;;4.82;1.83;;;;;;;14.07;72.70;100044.38;4997754;28;20050;-81
2024/04/04 10:54:38;;;;;;;1.92;1.40;;;;;;;14.03;72.39;100053.72;4988636;28;20054;-83
2024/04/04 10:57:05;;;;;;;5.97;1.75;;;;;;;14.17;72.45;100054.81;4990005;28;20425;-81
2024/04/04 10:59:34;;;;;;;5.00;1.80;;;;;;;14.15;72.79;100047.03;4989561;28;20062;-79
2024/04/04 11:02:04;;;;;;;2.83;1.77;;;;;;;14.29;71.92;100061.44;4987541;28;20105;-81
2024/04/04 11:04:32;;;;;;;3.80;1.92;;;;;;;14.38;71.58;100040.94;4996304;28;20050;-81
2024/04/04 11:06:57;;;;;;;4.63;1.75;;;;;;;14.53;72.00;100054.38;4984641;28;20054;-82
2024/04/04 11:09:26;;;;;;;4.35;2.33;;;;;;;14.61;70.95;100055.16;4984130;28;20563;-82
2024/04/04 11:11:54;;;;;;;3.40;1.83;;;;;;;14.68;70.83;100062.44;4997579;28;20461;-83
2024/04/04 11:14:21;;;;;;;5.50;2.08;;;;;;;14.52;69.85;100072.19;5002574;28;20054;-82
2024/04/04 11:16:51;;;;;;;3.67;1.50;;;;;;;14.31;71.35;100071.91;4991749;28;20058;-80
2024/04/04 11:19:20;;;;;;;2.15;1.55;;;;;;;14.23;72.62;100085.25;4983191;28;20051;-80
2024/04/04 11:21:47;;;;;;;3.60;1.77;;;;;;;14.02;73.36;100089.31;4996752;28;20046;-80
2024/04/04 11:24:14;;;;;;;5.00;1.70;;;;;;;13.78;74.76;100107.94;4997633;28;20046;-83
2024/04/04 11:26:40;;;;;;;2.88;1.40;;;;;;;13.32;74.73;100102.31;4997745;28;20090;-85
2024/04/04 11:29:07;;;;;;;1.65;0.88;;;;;;;12.95;74.74;100111.50;5003543;28;20050;-80
2024/04/04 11:31:32;;;;;;;3.42;1.38;;;;;;;12.13;78.88;100137.69;5001888;28;20118;-83
2024/04/04 11:34:03;;;;;;;7.55;1.73;;;;;;;11.64;81.47;100126.69;4987821;28;20466;-81